createdAt,value
2019-05-05T00:00:08.316Z,16.20
2019-05-05T00:00:49.913Z,18.02
2019-05-05T00:01:45.034Z,17.40
2019-05-05T00:02:38.502Z,16.12
2019-05-05T00:03:31.641Z,15.43
2019-05-05T00:04:20.277Z,15.90
2019-05-05T00:05:15.495Z,14.78
2019-05-05T00:05:49.624Z,13.10
2019-05-05T00:06:24.990Z,15.30
2019-05-05T00:06:59.247Z,14.90
2019-05-05T00:07:34.829Z,15.38
2019-05-05T00:08:09.678Z,15.00
2019-05-05T00:08:45.658Z,15.65
2019-05-05T00:09:19.798Z,16.82
2019-05-05T00:09:55.103Z,17.23
2019-05-05T00:10:48.598Z,15.30
2019-05-05T00:11:35.172Z,15.72
2019-05-05T00:12:28.350Z,15.08
2019-05-05T00:13:11.729Z,14.43
2019-05-05T00:13:58.525Z,14.65
2019-05-05T00:14:38.901Z,14.43
2019-05-05T00:15:34.517Z,15.43
2019-05-05T00:16:27.907Z,13.65
2019-05-05T00:17:08.895Z,12.37
2019-05-05T00:17:44.991Z,11.93
2019-05-05T00:18:21.823Z,14.07
2019-05-05T00:18:56.304Z,14.40
2019-05-05T00:19:33.262Z,13.65
2019-05-05T00:20:07.544Z,14.07
2019-05-05T00:20:41.984Z,13.68
2019-05-05T00:21:16.206Z,13.25
2019-05-05T00:21:50.474Z,13.65
2019-05-05T00:22:24.666Z,14.00
2019-05-05T00:22:58.788Z,13.98
2019-05-05T00:23:34.541Z,14.63
2019-05-05T00:24:08.805Z,14.85
2019-05-05T00:24:44.413Z,14.68
2019-05-05T00:25:18.699Z,14.03
2019-05-05T00:25:52.754Z,14.05
2019-05-05T00:26:27.290Z,13.70
2019-05-05T00:27:01.447Z,13.80
2019-05-05T00:27:35.698Z,13.80
2019-05-05T00:28:09.813Z,11.97
2019-05-05T00:28:44.799Z,13.05
2019-05-05T00:29:19.049Z,12.85
2019-05-05T00:29:54.699Z,12.10
2019-05-05T00:30:29.181Z,10.03
2019-05-05T00:31:04.685Z,13.10
2019-05-05T00:31:39.087Z,11.80
2019-05-05T00:32:15.272Z,11.30
2019-05-05T00:32:49.434Z,12.28
2019-05-05T00:33:24.885Z,12.88
2019-05-05T00:33:59.414Z,12.23
2019-05-05T00:34:35.014Z,10.28
2019-05-05T00:35:09.715Z,11.25
2019-05-05T00:35:45.116Z,11.85
2019-05-05T00:36:19.525Z,12.05
2019-05-05T00:36:55.283Z,12.37
2019-05-05T00:37:29.849Z,12.37
2019-05-05T00:38:05.062Z,12.45
2019-05-05T00:38:39.645Z,11.93
2019-05-05T00:39:14.982Z,12.07
2019-05-05T00:39:49.294Z,12.47
2019-05-05T00:40:24.862Z,11.88
2019-05-05T00:40:59.410Z,11.97
2019-05-05T00:41:34.610Z,12.05
2019-05-05T00:42:09.260Z,10.38
2019-05-05T00:42:45.494Z,11.25
2019-05-05T00:43:19.541Z,11.43
2019-05-05T00:43:55.363Z,12.03
2019-05-05T00:44:29.749Z,10.32
2019-05-05T00:45:05.537Z,11.30
2019-05-05T00:45:40.318Z,11.63
2019-05-05T00:46:20.694Z,7.95
2019-05-05T00:47:14.611Z,10.18
2019-05-05T00:47:54.418Z,11.33
2019-05-05T00:48:35.054Z,9.03
2019-05-05T00:49:09.492Z,10.88
2019-05-05T00:49:49.043Z,11.18
2019-05-05T00:50:21.910Z,11.68
2019-05-05T00:50:56.220Z,11.25
2019-05-05T00:51:30.378Z,12.37
2019-05-05T00:52:05.135Z,11.95
2019-05-05T00:52:39.426Z,11.25
2019-05-05T00:53:14.614Z,11.80
2019-05-05T00:53:49.171Z,12.03
2019-05-05T00:54:24.384Z,12.63
2019-05-05T00:54:58.808Z,11.70
2019-05-05T00:55:34.993Z,11.85
2019-05-05T00:56:09.151Z,10.90
2019-05-05T00:56:45.006Z,11.80
2019-05-05T00:57:19.189Z,12.37
2019-05-05T00:57:54.819Z,11.63
2019-05-05T00:58:30.891Z,11.73
2019-05-05T00:59:07.616Z,11.10
2019-05-05T00:59:41.741Z,10.95
2019-05-05T01:00:31.089Z,11.93
2019-05-05T01:01:14.499Z,10.68
2019-05-05T01:02:07.968Z,10.72
2019-05-05T01:02:45.016Z,10.28
2019-05-05T01:03:21.184Z,11.22
2019-05-05T01:03:55.340Z,12.30
2019-05-05T01:04:36.172Z,11.45
2019-05-05T01:05:17.985Z,10.95
2019-05-05T01:05:59.901Z,10.68
2019-05-05T01:06:34.603Z,7.40
2019-05-05T01:07:09.068Z,10.78
2019-05-05T01:07:44.406Z,11.00
2019-05-05T01:08:24.842Z,12.40
2019-05-05T01:08:59.799Z,11.97
2019-05-05T01:09:36.025Z,12.95
2019-05-05T01:10:10.604Z,11.50
2019-05-05T01:10:44.839Z,11.57
2019-05-05T01:11:20.011Z,11.40
2019-05-05T01:11:55.007Z,11.68
2019-05-05T01:12:29.489Z,12.23
2019-05-05T01:13:04.723Z,12.28
2019-05-05T01:13:39.425Z,11.85
2019-05-05T01:14:14.479Z,12.00
2019-05-05T01:14:48.937Z,12.00
2019-05-05T01:15:25.270Z,12.20
2019-05-05T01:15:59.436Z,11.60
2019-05-05T01:16:35.162Z,11.70
2019-05-05T01:17:09.560Z,11.93
2019-05-05T01:17:45.104Z,12.25
2019-05-05T01:18:19.655Z,12.78
2019-05-05T01:18:55.356Z,12.28
2019-05-05T01:19:29.822Z,10.93
2019-05-05T01:20:06.811Z,12.28
2019-05-05T01:20:40.552Z,11.88
2019-05-05T01:21:15.094Z,13.25
2019-05-05T01:21:49.347Z,12.20
2019-05-05T01:22:25.000Z,12.03
2019-05-05T01:22:59.395Z,11.08
2019-05-05T01:23:34.933Z,11.57
2019-05-05T01:24:09.545Z,11.70
2019-05-05T01:24:45.753Z,11.80
2019-05-05T01:25:19.689Z,11.35
2019-05-05T01:25:54.429Z,12.05
2019-05-05T01:26:28.945Z,11.60
2019-05-05T01:27:04.241Z,12.25
2019-05-05T01:27:38.472Z,11.68
2019-05-05T01:28:14.339Z,12.82
2019-05-05T01:28:48.690Z,11.78
2019-05-05T01:29:25.122Z,12.10
2019-05-05T01:29:58.860Z,11.70
2019-05-05T01:30:35.056Z,11.60
2019-05-05T01:31:14.662Z,11.48
2019-05-05T01:31:49.090Z,10.95
2019-05-05T01:32:27.372Z,10.80
2019-05-05T01:33:08.579Z,10.32
2019-05-05T01:34:01.695Z,9.38
2019-05-05T01:34:41.772Z,9.78
2019-05-05T01:35:16.215Z,10.58
2019-05-05T01:35:50.478Z,9.68
2019-05-05T01:36:24.655Z,10.72
2019-05-05T01:37:07.332Z,11.33
2019-05-05T01:37:46.747Z,11.15
2019-05-05T01:38:31.231Z,9.98
2019-05-05T01:39:28.480Z,9.35
2019-05-05T01:40:17.412Z,9.78
2019-05-05T01:41:00.774Z,9.85
2019-05-05T01:41:46.972Z,10.18
2019-05-05T01:42:21.189Z,10.55
2019-05-05T01:42:55.348Z,10.58
2019-05-05T01:43:29.625Z,11.15
2019-05-05T01:44:04.818Z,10.35
2019-05-05T01:44:39.233Z,9.73
2019-05-05T01:45:14.937Z,9.90
2019-05-05T01:45:49.500Z,10.32
2019-05-05T01:46:24.565Z,10.60
2019-05-05T01:46:58.841Z,10.08
2019-05-05T01:47:34.719Z,11.12
2019-05-05T01:48:09.137Z,11.08
2019-05-05T01:48:44.563Z,10.38
2019-05-05T01:49:18.715Z,10.23
2019-05-05T01:49:54.475Z,9.95
2019-05-05T01:50:28.855Z,10.05
2019-05-05T01:51:04.850Z,10.13
2019-05-05T01:51:38.874Z,10.28
2019-05-05T01:52:14.892Z,10.50
2019-05-05T01:52:49.145Z,9.73
2019-05-05T01:53:24.536Z,10.48
2019-05-05T01:53:58.683Z,9.55
2019-05-05T01:54:35.137Z,6.90
2019-05-05T01:55:09.397Z,8.70
2019-05-05T01:55:45.186Z,8.90
2019-05-05T01:56:19.577Z,8.68
2019-05-05T01:56:55.399Z,9.65
2019-05-05T01:57:30.172Z,9.53
2019-05-05T01:58:04.962Z,9.58
2019-05-05T01:58:39.410Z,9.28
2019-05-05T01:59:14.325Z,8.13
2019-05-05T01:59:49.292Z,9.30
2019-05-05T02:00:25.350Z,8.90
2019-05-05T02:00:59.745Z,9.10
2019-05-05T02:01:35.232Z,9.20
2019-05-05T02:02:09.845Z,9.13
2019-05-05T02:02:44.901Z,10.05
2019-05-05T02:03:19.520Z,9.35
2019-05-05T02:03:54.923Z,9.00
2019-05-05T02:04:29.256Z,8.38
2019-05-05T02:05:04.875Z,8.93
2019-05-05T02:05:39.600Z,9.23
2019-05-05T02:06:14.299Z,9.63
2019-05-05T02:06:48.841Z,10.53
2019-05-05T02:07:24.887Z,9.45
2019-05-05T02:07:59.050Z,10.35
2019-05-05T02:08:34.973Z,9.40
2019-05-05T02:09:09.321Z,10.20
2019-05-05T02:09:44.838Z,11.15
2019-05-05T02:10:19.650Z,10.60
2019-05-05T02:10:54.747Z,8.75
2019-05-05T02:11:29.145Z,8.53
2019-05-05T02:12:05.138Z,9.05
2019-05-05T02:12:39.202Z,8.53
2019-05-05T02:13:13.355Z,8.28
2019-05-05T02:13:47.954Z,8.40
2019-05-05T02:14:22.203Z,7.53
2019-05-05T02:14:56.275Z,8.73
2019-05-05T02:15:30.834Z,8.73
2019-05-05T02:16:05.115Z,7.45
2019-05-05T02:16:39.341Z,8.50
2019-05-05T02:17:14.408Z,7.60
2019-05-05T02:17:48.891Z,7.25
2019-05-05T02:18:25.284Z,6.70
2019-05-05T02:18:59.131Z,8.70
2019-05-05T02:19:35.005Z,8.38
2019-05-05T02:20:11.472Z,7.67
2019-05-05T02:21:06.293Z,7.25
2019-05-05T02:21:40.565Z,8.18
2019-05-05T02:22:14.888Z,7.33
2019-05-05T02:22:49.250Z,8.33
2019-05-05T02:23:24.550Z,8.45
2019-05-05T02:23:58.952Z,8.73
2019-05-05T02:24:34.815Z,7.97
2019-05-05T02:25:09.372Z,7.10
2019-05-05T02:25:44.737Z,8.68
2019-05-05T02:26:19.233Z,8.70
2019-05-05T02:26:54.526Z,9.08
2019-05-05T02:27:29.620Z,9.05
2019-05-05T02:28:04.460Z,8.45
2019-05-05T02:28:45.375Z,8.68
2019-05-05T02:29:38.641Z,9.58
2019-05-05T02:30:28.135Z,9.03
2019-05-05T02:31:09.543Z,8.70
2019-05-05T02:32:06.504Z,8.40
2019-05-05T02:32:47.483Z,8.53
2019-05-05T02:33:21.917Z,8.33
2019-05-05T02:33:57.043Z,9.15
2019-05-05T02:34:35.861Z,8.85
2019-05-05T02:35:16.237Z,9.38
2019-05-05T02:35:49.942Z,9.15
2019-05-05T02:36:25.745Z,8.63
2019-05-05T02:37:00.392Z,10.90
2019-05-05T02:37:35.703Z,10.10
2019-05-05T02:38:10.431Z,9.55
2019-05-05T02:38:46.324Z,9.20
2019-05-05T02:39:20.340Z,8.35
2019-05-05T02:40:02.248Z,7.75
2019-05-05T02:40:34.811Z,8.10
2019-05-05T02:41:08.433Z,7.40
2019-05-05T02:41:45.283Z,6.90
2019-05-05T02:42:21.284Z,7.25
2019-05-05T02:42:56.130Z,7.25
2019-05-05T02:43:34.291Z,6.80
2019-05-05T02:44:07.399Z,6.30
2019-05-05T02:44:45.380Z,6.65
2019-05-05T02:45:40.398Z,5.92
2019-05-05T02:46:35.639Z,6.70
2019-05-05T02:47:34.646Z,4.97
2019-05-05T02:48:15.320Z,5.15
2019-05-05T02:48:51.979Z,6.08
2019-05-05T02:49:26.499Z,6.37
2019-05-05T02:50:05.238Z,5.60
2019-05-05T02:51:03.119Z,5.80
2019-05-05T02:51:38.387Z,5.62
2019-05-05T02:52:15.155Z,4.92
2019-05-05T02:52:50.320Z,5.40
2019-05-05T02:53:29.075Z,5.75
2019-05-05T02:54:04.773Z,6.60
2019-05-05T02:54:39.232Z,7.10
2019-05-05T02:55:14.672Z,7.22
2019-05-05T02:55:50.375Z,6.58
2019-05-05T02:56:29.633Z,7.12
2019-05-05T02:57:04.631Z,4.60
2019-05-05T02:57:39.198Z,5.15
2019-05-05T02:58:14.002Z,5.50
2019-05-05T02:58:49.280Z,5.97
2019-05-05T02:59:31.955Z,4.90
2019-05-05T03:00:20.092Z,5.72
2019-05-05T03:01:14.041Z,5.30
2019-05-05T03:01:53.875Z,4.53
2019-05-05T03:02:31.300Z,4.53
2019-05-05T03:03:06.813Z,4.78
2019-05-05T03:03:41.146Z,5.28
2019-05-05T03:04:15.832Z,5.62
2019-05-05T03:04:53.570Z,5.78
2019-05-05T03:05:27.975Z,6.05
2019-05-05T03:06:04.366Z,5.28
2019-05-05T03:06:43.607Z,4.75
2019-05-05T03:07:18.795Z,4.85
2019-05-05T03:07:54.614Z,5.80
2019-05-05T03:08:29.709Z,5.72
2019-05-05T03:09:05.720Z,5.80
2019-05-05T03:09:41.240Z,4.80
2019-05-05T03:10:15.974Z,4.80
2019-05-05T03:10:50.663Z,5.05
2019-05-05T03:11:25.346Z,5.72
2019-05-05T03:12:01.255Z,5.47
2019-05-05T03:12:38.621Z,7.00
2019-05-05T03:13:14.050Z,5.70
2019-05-05T03:13:50.820Z,5.85
2019-05-05T03:14:26.895Z,5.40
2019-05-05T03:15:04.198Z,6.62
2019-05-05T03:15:47.014Z,6.35
2019-05-05T03:16:23.732Z,6.53
2019-05-05T03:16:57.890Z,6.03
2019-05-05T03:17:34.072Z,5.65
2019-05-05T03:18:08.627Z,6.00
2019-05-05T03:18:43.974Z,5.62
2019-05-05T03:19:18.690Z,6.05
2019-05-05T03:19:53.607Z,5.83
2019-05-05T03:20:28.226Z,5.95
2019-05-05T03:21:07.227Z,6.12
2019-05-05T03:21:39.125Z,4.60
2019-05-05T03:22:14.373Z,4.90
2019-05-05T03:22:48.966Z,5.53
2019-05-05T03:23:24.049Z,5.90
2019-05-05T03:23:58.455Z,6.35
2019-05-05T03:24:34.084Z,5.78
2019-05-05T03:25:08.710Z,4.87
2019-05-05T03:25:43.991Z,6.00
2019-05-05T03:26:18.612Z,5.10
2019-05-05T03:26:53.812Z,4.70
2019-05-05T03:27:28.547Z,4.53
2019-05-05T03:28:04.428Z,4.20
2019-05-05T03:28:43.843Z,4.05
2019-05-05T03:29:20.410Z,4.92
2019-05-05T03:29:54.962Z,5.60
2019-05-05T03:30:29.595Z,5.58
2019-05-05T03:31:04.980Z,5.75
2019-05-05T03:31:39.754Z,6.72
2019-05-05T03:32:16.179Z,5.85
2019-05-05T03:32:50.182Z,5.37
2019-05-05T03:33:25.145Z,4.47
2019-05-05T03:33:59.773Z,4.90
2019-05-05T03:34:34.452Z,5.37
2019-05-05T03:35:09.075Z,5.85
2019-05-05T03:35:43.683Z,5.50
2019-05-05T03:36:18.198Z,4.80
2019-05-05T03:36:53.662Z,5.03
2019-05-05T03:37:28.217Z,4.75
2019-05-05T03:38:03.900Z,6.40
2019-05-05T03:38:38.522Z,5.33
2019-05-05T03:39:18.688Z,5.67
2019-05-05T03:39:59.427Z,5.12
2019-05-05T03:40:35.972Z,5.65
2019-05-05T03:41:15.578Z,4.95
2019-05-05T03:42:09.027Z,4.90
2019-05-05T03:42:50.594Z,4.95
2019-05-05T03:43:28.815Z,4.80
2019-05-05T03:44:09.745Z,5.15
2019-05-05T03:44:54.526Z,4.83
2019-05-05T03:45:48.296Z,5.22
2019-05-05T03:46:23.818Z,4.90
2019-05-05T03:46:58.020Z,5.22
2019-05-05T03:47:33.714Z,5.15
2019-05-05T03:48:08.412Z,4.85
2019-05-05T03:48:43.838Z,4.22
2019-05-05T03:49:18.522Z,5.28
2019-05-05T03:49:53.577Z,5.22
2019-05-05T03:50:28.821Z,5.58
2019-05-05T03:51:16.032Z,4.53
2019-05-05T03:51:39.310Z,4.62
2019-05-05T03:52:14.251Z,4.33
2019-05-05T03:52:48.807Z,5.30
2019-05-05T03:53:24.565Z,4.50
2019-05-05T03:53:59.057Z,4.22
2019-05-05T03:54:34.345Z,4.75
2019-05-05T03:55:08.819Z,5.10
2019-05-05T03:55:43.913Z,4.90
2019-05-05T03:56:18.479Z,5.92
2019-05-05T03:57:07.842Z,5.17
2019-05-05T03:57:42.090Z,4.37
2019-05-05T03:58:16.385Z,4.87
2019-05-05T03:58:51.120Z,5.85
2019-05-05T03:59:25.745Z,5.45
2019-05-05T04:00:00.056Z,5.55
2019-05-05T04:01:14.530Z,5.42
2019-05-05T04:02:07.922Z,5.12
2019-05-05T04:02:50.737Z,4.83
2019-05-05T04:03:24.815Z,5.40
2019-05-05T04:04:17.958Z,5.15
2019-05-05T04:04:54.812Z,5.37
2019-05-05T04:05:47.512Z,5.75
2019-05-05T04:06:37.083Z,5.45
2019-05-05T04:07:13.816Z,5.35
2019-05-05T04:07:47.657Z,5.70
2019-05-05T04:08:23.506Z,5.50
2019-05-05T04:08:57.742Z,6.12
2019-05-05T04:09:33.989Z,6.60
2019-05-05T04:10:08.442Z,6.20
2019-05-05T04:10:43.944Z,6.55
2019-05-05T04:11:18.350Z,6.85
2019-05-05T04:11:53.935Z,6.22
2019-05-05T04:12:28.471Z,7.28
2019-05-05T04:13:04.759Z,7.72
2019-05-05T04:13:40.246Z,6.40
2019-05-05T04:14:18.277Z,5.95
2019-05-05T04:14:52.133Z,5.55
2019-05-05T04:15:33.704Z,5.75
2019-05-05T04:16:21.375Z,5.42
2019-05-05T04:17:09.854Z,5.35
2019-05-05T04:17:50.407Z,5.75
2019-05-05T04:18:27.392Z,5.33
2019-05-05T04:19:03.708Z,6.00
2019-05-05T04:19:39.957Z,6.05
2019-05-05T04:20:33.853Z,6.42
2019-05-05T04:21:08.043Z,6.12
2019-05-05T04:21:44.323Z,7.85
2019-05-05T04:22:18.091Z,7.25
2019-05-05T04:22:54.077Z,7.72
2019-05-05T04:23:28.231Z,6.90
2019-05-05T04:24:04.034Z,7.55
2019-05-05T04:24:38.171Z,7.42
2019-05-05T04:25:13.896Z,7.33
2019-05-05T04:25:48.224Z,7.15
2019-05-05T04:26:23.497Z,6.35
2019-05-05T04:26:57.759Z,6.20
2019-05-05T04:27:34.166Z,6.42
2019-05-05T04:28:07.743Z,7.83
2019-05-05T04:28:43.519Z,8.98
2019-05-05T04:29:17.623Z,9.53
2019-05-05T04:29:51.704Z,8.93
2019-05-05T04:30:26.075Z,8.53
2019-05-05T04:31:00.330Z,8.73
2019-05-05T04:31:34.690Z,9.95
2019-05-05T04:32:08.939Z,11.22
2019-05-05T04:32:43.958Z,8.88
2019-05-05T04:33:18.190Z,10.08
2019-05-05T04:33:53.857Z,8.20
2019-05-05T04:34:28.208Z,8.15
2019-05-05T04:35:03.665Z,8.90
2019-05-05T04:35:38.034Z,10.48
2019-05-05T04:36:14.318Z,11.88
2019-05-05T04:36:47.942Z,12.68
2019-05-05T04:37:23.772Z,12.07
2019-05-05T04:37:58.615Z,13.18
2019-05-05T04:38:34.690Z,11.60
2019-05-05T04:39:08.692Z,11.53
2019-05-05T04:39:44.333Z,9.95
2019-05-05T04:40:18.834Z,9.58
2019-05-05T04:40:54.181Z,10.38
2019-05-05T04:41:28.649Z,10.30
2019-05-05T04:42:04.734Z,11.05
2019-05-05T04:42:38.800Z,12.00
2019-05-05T04:43:14.277Z,12.40
2019-05-05T04:43:48.785Z,13.15
2019-05-05T04:44:23.667Z,10.75
2019-05-05T04:44:58.087Z,11.15
2019-05-05T04:45:34.510Z,10.38
2019-05-05T04:46:09.695Z,10.00
2019-05-05T04:46:44.885Z,11.18
2019-05-05T04:47:24.688Z,11.12
2019-05-05T04:48:04.814Z,11.80
2019-05-05T04:48:45.616Z,8.65
2019-05-05T04:49:33.997Z,7.15
2019-05-05T04:50:27.777Z,8.10
2019-05-05T04:51:21.166Z,7.25
2019-05-05T04:51:56.271Z,7.25
2019-05-05T04:52:30.726Z,8.10
2019-05-05T04:53:06.932Z,7.03
2019-05-05T04:54:00.044Z,6.00
2019-05-05T04:54:40.905Z,5.25
2019-05-05T04:55:15.133Z,5.28
2019-05-05T04:55:49.277Z,6.08
2019-05-05T04:56:23.519Z,7.17
2019-05-05T04:56:57.813Z,8.03
2019-05-05T04:57:32.046Z,6.55
2019-05-05T04:58:06.141Z,6.62
2019-05-05T04:58:40.422Z,5.90
2019-05-05T04:59:14.546Z,7.55
2019-05-05T04:59:50.124Z,6.10
2019-05-05T05:00:24.308Z,5.92
2019-05-05T05:00:58.916Z,5.00
2019-05-05T05:01:33.732Z,6.65
2019-05-05T05:02:17.728Z,9.78
2019-05-05T05:03:04.495Z,5.25
2019-05-05T05:03:51.293Z,5.35
2019-05-05T05:04:44.481Z,8.53
2019-05-05T05:05:25.943Z,7.70
2019-05-05T05:06:06.554Z,8.25
2019-05-05T05:06:44.494Z,7.33
2019-05-05T05:07:19.418Z,7.80
2019-05-05T05:07:54.342Z,7.85
2019-05-05T05:08:29.634Z,8.03
2019-05-05T05:09:04.755Z,8.58
2019-05-05T05:09:38.815Z,9.08
2019-05-05T05:10:13.867Z,7.75
2019-05-05T05:10:48.410Z,8.30
2019-05-05T05:11:24.545Z,8.25
2019-05-05T05:11:58.451Z,8.35
2019-05-05T05:12:34.149Z,8.05
2019-05-05T05:13:08.712Z,8.48
2019-05-05T05:13:44.043Z,9.43
2019-05-05T05:14:18.539Z,9.18
2019-05-05T05:14:54.601Z,9.15
2019-05-05T05:15:28.853Z,9.08
2019-05-05T05:16:04.538Z,8.58
2019-05-05T05:16:38.683Z,8.00
2019-05-05T05:17:19.673Z,9.40
2019-05-05T05:18:00.764Z,8.30
2019-05-05T05:18:35.211Z,8.28
2019-05-05T05:19:09.445Z,8.60
2019-05-05T05:19:43.761Z,7.83
2019-05-05T05:20:18.147Z,6.78
2019-05-05T05:20:54.651Z,7.87
2019-05-05T05:21:28.093Z,8.35
2019-05-05T05:22:04.830Z,9.95
2019-05-05T05:22:38.191Z,9.38
2019-05-05T05:23:14.152Z,9.80
2019-05-05T05:23:49.108Z,8.83
2019-05-05T05:24:23.745Z,9.10
2019-05-05T05:24:58.062Z,9.33
2019-05-05T05:25:34.466Z,9.00
2019-05-05T05:26:08.478Z,9.85
2019-05-05T05:26:44.156Z,9.55
2019-05-05T05:27:18.546Z,9.85
2019-05-05T05:27:53.617Z,10.05
2019-05-05T05:28:27.891Z,10.55
2019-05-05T05:29:04.361Z,8.68
2019-05-05T05:29:38.213Z,7.75
2019-05-05T05:30:13.739Z,8.60
2019-05-05T05:30:48.335Z,8.70
2019-05-05T05:31:24.464Z,8.33
2019-05-05T05:31:58.532Z,6.83
2019-05-05T05:32:34.013Z,8.23
2019-05-05T05:33:09.451Z,9.30
2019-05-05T05:33:43.819Z,7.55
2019-05-05T05:34:18.152Z,7.55
2019-05-05T05:34:54.284Z,8.23
2019-05-05T05:35:28.134Z,7.45
2019-05-05T05:36:04.003Z,7.80
2019-05-05T05:36:38.343Z,5.22
2019-05-05T05:37:13.508Z,8.33
2019-05-05T05:37:47.871Z,7.35
2019-05-05T05:38:24.101Z,6.95
2019-05-05T05:39:03.475Z,7.62
2019-05-05T05:39:44.157Z,7.72
2019-05-05T05:40:35.645Z,7.40
2019-05-05T05:41:14.843Z,7.35
2019-05-05T05:41:49.128Z,7.87
2019-05-05T05:42:24.156Z,7.17
2019-05-05T05:42:59.237Z,8.40
2019-05-05T05:43:43.985Z,8.05
2019-05-05T05:44:37.383Z,8.33
2019-05-05T05:45:30.751Z,6.90
2019-05-05T05:46:19.759Z,6.62
2019-05-05T05:46:59.497Z,7.33
2019-05-05T05:47:53.658Z,8.10
2019-05-05T05:48:36.371Z,8.50
2019-05-05T05:49:16.719Z,8.93
2019-05-05T05:49:58.398Z,8.10
2019-05-05T05:50:36.083Z,8.13
2019-05-05T05:51:14.639Z,8.25
2019-05-05T05:51:48.820Z,7.95
2019-05-05T05:52:24.219Z,8.45
2019-05-05T05:52:58.722Z,8.43
2019-05-05T05:53:34.805Z,8.08
2019-05-05T05:54:08.871Z,8.90
2019-05-05T05:54:44.234Z,8.00
2019-05-05T05:55:18.662Z,7.30
2019-05-05T05:55:53.810Z,7.35
2019-05-05T05:56:28.139Z,7.75
2019-05-05T05:57:04.243Z,8.35
2019-05-05T05:57:38.412Z,6.22
2019-05-05T05:58:14.046Z,7.97
2019-05-05T05:58:48.333Z,6.87
2019-05-05T05:59:24.540Z,7.50
2019-05-05T05:59:58.247Z,7.00
2019-05-05T06:00:34.354Z,5.90
2019-05-05T06:01:10.092Z,6.78
2019-05-05T06:01:44.521Z,7.47
2019-05-05T06:02:18.663Z,7.70
2019-05-05T06:02:54.538Z,8.43
2019-05-05T06:03:28.916Z,7.47
2019-05-05T06:04:04.101Z,7.08
2019-05-05T06:04:38.426Z,7.35
2019-05-05T06:05:14.810Z,6.78
2019-05-05T06:05:49.159Z,6.25
2019-05-05T06:06:24.115Z,7.20
2019-05-05T06:06:58.428Z,7.50
2019-05-05T06:07:33.607Z,7.08
2019-05-05T06:08:07.942Z,8.15
2019-05-05T06:08:44.000Z,7.05
2019-05-05T06:09:17.923Z,5.92
2019-05-05T06:09:54.023Z,7.67
2019-05-05T06:10:27.930Z,5.20
2019-05-05T06:11:04.280Z,5.37
2019-05-05T06:11:38.253Z,6.03
2019-05-05T06:12:14.141Z,7.30
2019-05-05T06:12:48.378Z,7.33
2019-05-05T06:13:24.167Z,7.67
2019-05-05T06:13:58.795Z,8.15
2019-05-05T06:14:34.137Z,7.72
2019-05-05T06:15:08.689Z,7.75
2019-05-05T06:15:44.369Z,7.05
2019-05-05T06:16:18.904Z,8.38
2019-05-05T06:16:53.982Z,8.30
2019-05-05T06:17:28.484Z,8.45
2019-05-05T06:18:04.617Z,8.15
2019-05-05T06:18:38.882Z,8.25
2019-05-05T06:19:14.100Z,7.67
2019-05-05T06:19:48.343Z,8.58
2019-05-05T06:20:23.842Z,11.00
2019-05-05T06:20:58.495Z,8.80
2019-05-05T06:21:33.731Z,10.10
2019-05-05T06:22:08.332Z,8.63
2019-05-05T06:22:44.521Z,8.55
2019-05-05T06:23:18.380Z,9.83
2019-05-05T06:23:53.782Z,11.63
2019-05-05T06:24:28.105Z,13.48
2019-05-05T06:25:06.126Z,8.18
2019-05-05T06:25:38.349Z,8.98
2019-05-05T06:26:14.938Z,10.80
2019-05-05T06:26:48.509Z,11.73
2019-05-05T06:27:23.590Z,11.65
2019-05-05T06:27:58.243Z,12.05
2019-05-05T06:28:34.186Z,17.75
2019-05-05T06:29:08.588Z,38.50
2019-05-05T06:29:43.872Z,24.40
2019-05-05T06:30:18.571Z,13.80
2019-05-05T06:30:54.695Z,12.93
2019-05-05T06:31:28.704Z,9.78
2019-05-05T06:32:04.040Z,8.03
2019-05-05T06:32:38.414Z,12.30
2019-05-05T06:33:13.724Z,12.35
2019-05-05T06:33:48.138Z,11.25
2019-05-05T06:34:24.285Z,15.32
2019-05-05T06:34:58.299Z,11.30
2019-05-05T06:35:44.365Z,13.20
2019-05-05T06:36:19.006Z,10.82
2019-05-05T06:36:53.752Z,10.23
2019-05-05T06:37:28.294Z,11.25
2019-05-05T06:38:04.453Z,10.08
2019-05-05T06:38:38.538Z,10.18
2019-05-05T06:39:13.636Z,12.40
2019-05-05T06:39:49.604Z,11.63
2019-05-05T06:40:44.444Z,14.25
2019-05-05T06:41:34.563Z,13.75
2019-05-05T06:42:27.632Z,14.55
2019-05-05T06:43:19.018Z,10.15
2019-05-05T06:44:04.590Z,9.83
2019-05-05T06:44:44.104Z,9.95
2019-05-05T06:45:28.711Z,12.53
2019-05-05T06:46:04.108Z,10.68
2019-05-05T06:46:57.609Z,14.87
2019-05-05T06:47:36.126Z,15.55
2019-05-05T06:48:10.419Z,12.10
2019-05-05T06:48:44.667Z,17.50
2019-05-05T06:49:18.896Z,12.70
2019-05-05T06:49:54.174Z,10.15
2019-05-05T06:50:28.815Z,10.98
2019-05-05T06:51:03.934Z,11.25
2019-05-05T06:51:38.515Z,12.23
2019-05-05T06:52:14.273Z,11.90
2019-05-05T06:52:48.588Z,10.85
2019-05-05T06:53:23.890Z,10.78
2019-05-05T06:53:58.289Z,10.68
2019-05-05T06:54:34.642Z,8.70
2019-05-05T06:55:08.604Z,12.13
2019-05-05T06:55:44.451Z,10.98
2019-05-05T06:56:18.810Z,11.18
2019-05-05T06:56:53.892Z,10.78
2019-05-05T06:57:28.370Z,13.00
2019-05-05T06:58:04.447Z,11.97
2019-05-05T06:58:38.357Z,12.73
2019-05-05T06:59:13.710Z,10.75
2019-05-05T06:59:48.100Z,10.55
2019-05-05T07:00:24.173Z,11.05
2019-05-05T07:00:58.545Z,12.50
2019-05-05T07:01:33.818Z,14.30
2019-05-05T07:02:08.074Z,12.37
2019-05-05T07:02:44.297Z,12.70
2019-05-05T07:03:18.226Z,12.85
2019-05-05T07:03:54.167Z,15.08
2019-05-05T07:04:28.731Z,13.25
2019-05-05T07:05:04.048Z,12.20
2019-05-05T07:05:38.547Z,10.45
2019-05-05T07:06:14.634Z,11.90
2019-05-05T07:06:54.134Z,13.98
2019-05-05T07:07:25.003Z,12.20
2019-05-05T07:07:59.114Z,9.45
2019-05-05T07:08:34.717Z,11.45
2019-05-05T07:09:09.207Z,11.38
2019-05-05T07:09:44.278Z,12.10
2019-05-05T07:10:18.805Z,12.95
2019-05-05T07:10:54.837Z,14.63
2019-05-05T07:11:28.802Z,13.40
2019-05-05T07:12:04.505Z,12.35
2019-05-05T07:12:39.272Z,13.10
2019-05-05T07:13:14.019Z,14.95
2019-05-05T07:13:48.502Z,14.47
2019-05-05T07:14:23.645Z,13.25
2019-05-05T07:14:58.152Z,13.25
2019-05-05T07:15:34.169Z,15.23
2019-05-05T07:16:08.152Z,16.15
2019-05-05T07:16:43.818Z,13.32
2019-05-05T07:17:18.213Z,11.22
2019-05-05T07:17:53.559Z,12.88
2019-05-05T07:18:27.821Z,11.70
2019-05-05T07:19:04.228Z,11.85
2019-05-05T07:19:37.904Z,10.75
2019-05-05T07:20:13.604Z,10.90
2019-05-05T07:20:48.049Z,10.55
2019-05-05T07:21:23.650Z,11.88
2019-05-05T07:21:58.063Z,12.98
2019-05-05T07:22:34.514Z,13.05
2019-05-05T07:23:08.214Z,16.30
2019-05-05T07:23:44.429Z,18.15
2019-05-05T07:24:18.367Z,20.27
2019-05-05T07:24:54.174Z,13.55
2019-05-05T07:25:39.856Z,11.90
2019-05-05T07:26:04.649Z,11.43
2019-05-05T07:26:39.080Z,13.45
2019-05-05T07:27:13.961Z,12.95
2019-05-05T07:27:48.282Z,14.25
2019-05-05T07:28:23.493Z,17.73
2019-05-05T07:28:58.020Z,13.18
2019-05-05T07:29:34.281Z,15.98
2019-05-05T07:30:08.831Z,15.25
2019-05-05T07:30:44.243Z,16.23
2019-05-05T07:31:18.645Z,16.77
2019-05-05T07:31:54.582Z,16.73
2019-05-05T07:32:28.862Z,13.22
2019-05-05T07:33:04.577Z,15.58
2019-05-05T07:33:38.899Z,17.10
2019-05-05T07:34:14.148Z,16.70
2019-05-05T07:34:56.195Z,11.57
2019-05-05T07:35:56.793Z,12.13
2019-05-05T07:36:35.569Z,9.50
2019-05-05T07:37:09.839Z,12.55
2019-05-05T07:37:44.145Z,12.98
2019-05-05T07:38:18.244Z,13.28
2019-05-05T07:38:54.596Z,15.55
2019-05-05T07:39:28.351Z,12.03
2019-05-05T07:40:04.221Z,10.25
2019-05-05T07:40:38.551Z,9.40
2019-05-05T07:41:14.115Z,8.45
2019-05-05T07:41:48.420Z,10.10
2019-05-05T07:42:24.331Z,11.97
2019-05-05T07:42:58.689Z,13.75
2019-05-05T07:43:34.496Z,15.28
2019-05-05T07:44:22.287Z,15.93
2019-05-05T07:44:44.631Z,16.25
2019-05-05T07:45:22.766Z,14.75
2019-05-05T07:45:54.750Z,13.90
2019-05-05T07:46:28.787Z,16.50
2019-05-05T07:47:03.620Z,12.00
2019-05-05T07:47:38.023Z,12.53
2019-05-05T07:48:13.853Z,11.03
2019-05-05T07:48:48.226Z,13.43
2019-05-05T07:49:24.362Z,15.43
2019-05-05T07:49:58.467Z,18.02
2019-05-05T07:50:35.635Z,12.50
2019-05-05T07:51:08.588Z,10.40
2019-05-05T07:51:44.239Z,12.58
2019-05-05T07:52:18.794Z,11.43
2019-05-05T07:52:54.602Z,13.45
2019-05-05T07:53:28.894Z,13.85
2019-05-05T07:54:03.803Z,15.72
2019-05-05T07:54:38.237Z,15.80
2019-05-05T07:55:14.357Z,15.40
2019-05-05T07:55:48.609Z,17.35
2019-05-05T07:56:23.760Z,15.28
2019-05-05T07:56:58.203Z,16.95
2019-05-05T07:57:34.196Z,17.25
2019-05-05T07:58:08.195Z,15.10
2019-05-05T07:58:43.842Z,13.32
2019-05-05T07:59:18.395Z,14.10
2019-05-05T07:59:53.964Z,13.40
2019-05-05T08:00:28.323Z,13.35
2019-05-05T08:01:04.501Z,12.95
2019-05-05T08:01:38.476Z,13.48
2019-05-05T08:02:14.519Z,11.78
2019-05-05T08:02:48.450Z,11.50